Time;durP1;ratioP1;P1;durP2;ratioP2;P2;SDS_P1;SDS_P2;PMS_P1;PMS_P2;Temp;Humidity;BMP_temperature;BMP_pressure;BME280_temperature;BME280_humidity;BME280_pressure;Samples;Min_cycle;Max_cycle;Signal;HPM_P1;HPM_P2
2023/01/27 00:01:23;;;;;;;;;9.40;8.20;;;;;3.07;84.47;100519.78;5116782;28;8849;-58
2023/01/27 00:03:51;;;;;;;;;4.00;3.40;;;;;3.07;84.28;100521.56;5117087;28;8839;-59
2023/01/27 00:06:19;;;;;;;;;4.00;3.40;;;;;3.08;84.27;100523.25;5116733;28;8843;-58
2023/01/27 00:08:47;;;;;;;;;10.40;9.20;;;;;3.08;84.94;100525.91;5116448;28;8961;-58
2023/01/27 00:14:00;;;;;;;;;8.60;7.00;;;;;3.08;85.03;100518.88;5116512;28;8882;-59
2023/01/27 00:16:27;;;;;;;;;7.40;7.40;;;;;3.08;84.54;100518.88;5115938;28;8827;-60
2023/01/27 00:18:55;;;;;;;;;6.40;5.60;;;;;3.08;84.56;100520.63;5116787;28;8942;-58
2023/01/27 00:26:53;;;;;;;;;7.40;7.00;;;;;3.09;85.03;100527.63;5116776;28;8836;-61
2023/01/27 00:29:22;;;;;;;;;6.20;6.20;;;;;3.08;84.96;100523.25;5116815;28;8839;-58
2023/01/27 00:34:34;;;;;;;;;7.40;6.60;;;;;3.08;85.00;100521.50;5117479;28;8839;-60
2023/01/27 00:37:02;;;;;;;;;8.80;7.80;;;;;3.09;84.68;100522.38;5116996;28;8820;-58
2023/01/27 00:39:30;;;;;;;;;4.00;3.00;;;;;3.09;84.75;100523.22;5116608;28;8834;-59
2023/01/27 00:41:57;;;;;;;;;7.00;6.20;;;;;3.10;84.62;100530.19;5116613;28;8831;-58
2023/01/27 00:44:25;;;;;;;;;6.20;5.20;;;;;3.09;84.68;100528.47;5116505;28;8832;-58
2023/01/27 00:46:53;;;;;;;;;9.00;6.60;;;;;3.11;84.80;100539.78;5116675;28;8823;-58
2023/01/27 00:49:21;;;;;;;;;10.00;9.60;;;;;3.12;85.07;100538.91;5116708;28;8823;-57
2023/01/27 00:51:49;;;;;;;;;9.40;7.80;;;;;3.14;84.19;100542.31;5116670;28;8836;-58
2023/01/27 00:54:16;;;;;;;;;5.60;4.00;;;;;3.13;85.04;100540.59;5116479;28;8966;-58
2023/01/27 00:56:44;;;;;;;;;10.00;8.60;;;;;3.13;85.08;100545.88;5116977;28;8847;-58
2023/01/27 00:59:12;;;;;;;;;8.20;8.20;;;;;3.11;85.04;100534.53;5116328;28;8835;-58
2023/01/27 01:01:40;;;;;;;;;10.20;8.80;;;;;3.11;85.19;100545.03;5116712;28;8854;-58
2023/01/27 01:04:08;;;;;;;;;9.20;7.80;;;;;3.09;85.44;100544.25;5116422;28;8811;-58
2023/01/27 01:06:35;;;;;;;;;6.40;4.80;;;;;3.08;85.11;100547.81;5116274;28;8916;-58
2023/01/27 01:09:03;;;;;;;;;11.60;10.80;;;;;3.06;85.57;100546.16;5116153;28;8827;-58
2023/01/27 01:11:32;;;;;;;;;12.80;11.60;;;;;3.04;85.62;100546.19;5116760;28;9493;-60
2023/01/27 01:20:19;;;;;;;;;7.40;7.40;;;;;3.00;85.23;100549.00;5110412;28;8832;-58
2023/01/27 01:22:47;;;;;;;;;9.20;7.40;;;;;2.97;85.64;100539.50;5104313;28;8820;-58
2023/01/27 01:25:15;;;;;;;;;9.80;9.80;;;;;2.95;85.48;100546.56;5116197;28;8948;-58
2023/01/27 01:27:42;;;;;;;;;9.40;6.60;;;;;2.94;85.76;100552.75;5115756;28;8820;-58
2023/01/27 01:30:10;;;;;;;;;6.40;4.00;;;;;2.94;85.53;100550.13;5115942;28;8843;-60
2023/01/27 01:32:40;;;;;;;;;3.00;3.00;;;;;2.92;85.41;100557.22;5115978;28;8939;-58
2023/01/27 01:35:08;;;;;;;;;7.00;6.00;;;;;2.91;85.57;100563.41;5116107;28;8808;-58
2023/01/27 01:37:35;;;;;;;;;4.40;4.00;;;;;2.90;85.23;100566.94;5116186;28;8881;-58
2023/01/27 01:40:03;;;;;;;;;10.40;8.00;;;;;2.90;85.19;100566.94;5116177;28;8864;-58
2023/01/27 01:42:31;;;;;;;;;6.40;6.20;;;;;2.91;85.87;100559.91;5116102;28;8828;-58
2023/01/27 01:44:58;;;;;;;;;4.00;3.40;;;;;2.90;85.41;100559.06;5115941;28;8850;-58
2023/01/27 01:47:26;;;;;;;;;6.20;6.00;;;;;2.90;85.94;100564.31;5116079;28;8816;-59
2023/01/27 01:49:54;;;;;;;;;6.60;4.80;;;;;2.90;85.31;100556.44;5116041;28;8815;-58
2023/01/27 01:52:22;;;;;;;;;4.00;4.00;;;;;2.90;85.96;100560.81;5116400;28;8875;-58
2023/01/27 01:54:49;;;;;;;;;6.60;6.00;;;;;2.90;85.74;100559.06;5115565;28;8808;-58
2023/01/27 01:57:17;;;;;;;;;4.80;4.80;;;;;2.90;85.36;100550.31;5115719;28;8835;-58
2023/01/27 01:59:45;;;;;;;;;4.60;3.80;;;;;2.90;85.83;100551.19;5116239;28;8845;-60
2023/01/27 02:02:12;;;;;;;;;4.60;1.40;;;;;2.89;85.79;100556.47;5115558;28;8838;-57
2023/01/27 02:04:40;;;;;;;;;7.60;6.60;;;;;2.89;86.12;100549.44;5115857;28;8832;-58
2023/01/27 02:07:07;;;;;;;;;10.80;9.80;;;;;2.89;86.06;100556.47;5115505;28;8808;-58
2023/01/27 02:09:35;;;;;;;;;8.60;4.80;;;;;2.89;85.67;100549.44;5115801;28;8904;-58
2023/01/27 02:12:03;;;;;;;;;3.60;3.40;;;;;2.90;85.77;100553.81;5115738;28;8843;-58
2023/01/27 02:14:31;;;;;;;;;6.00;5.20;;;;;2.90;85.59;100551.19;5116178;28;8876;-60
2023/01/27 02:16:59;;;;;;;;;8.60;5.60;;;;;2.89;85.57;100557.31;5115800;28;8844;-59
2023/01/27 02:19:26;;;;;;;;;3.40;3.40;;;;;2.91;86.13;100550.25;5115343;28;8838;-57
2023/01/27 02:21:54;;;;;;;;;6.40;5.20;;;;;2.91;85.74;100559.91;5115625;28;8925;-58
2023/01/27 02:24:22;;;;;;;;;5.80;5.20;;;;;2.92;86.18;100556.34;5134733;27;9539;-59
2023/01/27 02:26:50;;;;;;;;;5.00;4.40;;;;;2.92;85.63;100556.34;5121374;28;8816;-58
2023/01/27 02:29:17;;;;;;;;;3.20;3.00;;;;;2.92;86.08;100559.84;5114918;28;8809;-58
2023/01/27 02:31:45;;;;;;;;;8.80;8.00;;;;;2.92;85.92;100557.22;5114869;28;8816;-60
2023/01/27 02:34:13;;;;;;;;;6.00;4.00;;;;;2.92;85.75;100562.47;5115603;28;8823;-58
2023/01/27 02:36:41;;;;;;;;;9.60;7.80;;;;;2.92;86.14;100559.84;5118984;28;8823;-61
2023/01/27 02:39:09;;;;;;;;;6.40;4.40;;;;;2.92;85.62;100556.34;5119305;28;8846;-60
2023/01/27 02:41:36;;;;;;;;;4.40;3.80;;;;;2.91;86.13;100552.88;5118610;28;8820;-60
2023/01/27 02:44:04;;;;;;;;;9.20;7.40;;;;;2.92;86.17;100556.34;5118165;28;8828;-61
2023/01/27 02:46:32;;;;;;;;;3.20;2.60;;;;;2.91;86.10;100554.66;5118219;28;8827;-59
2023/01/27 02:49:00;;;;;;;;;1.40;1.00;;;;;2.90;86.21;100556.44;5118864;28;8836;-58
2023/01/27 02:51:27;;;;;;;;;5.20;4.40;;;;;2.91;86.35;100555.50;5118894;28;8832;-58
2023/01/27 02:53:55;;;;;;;;;8.80;6.40;;;;;2.91;86.08;100550.25;5133636;27;8890;-60
2023/01/27 02:56:22;;;;;;;;;0.00;0.00;;;;;2.92;86.02;100558.97;5135557;27;8824;-60
2023/01/27 02:58:52;;;;;;;;;10.80;9.80;;;;;2.92;86.35;100558.97;5118474;28;8812;-60
2023/01/27 03:01:20;;;;;;;;;5.20;4.00;;;;;2.91;86.26;100555.50;5118919;28;8843;-60
2023/01/27 03:03:47;;;;;;;;;7.80;7.00;;;;;2.90;86.77;100559.06;5118352;28;8846;-60
2023/01/27 03:06:15;;;;;;;;;3.40;3.00;;;;;2.91;86.38;100555.50;5118250;28;8842;-61
2023/01/27 03:08:43;;;;;;;;;6.40;6.20;;;;;2.90;86.01;100545.91;5118569;28;8832;-61
2023/01/27 03:11:10;;;;;;;;;5.60;4.80;;;;;2.90;86.47;100555.56;5118333;28;8820;-60
2023/01/27 03:13:38;;;;;;;;;4.00;4.00;;;;;2.89;86.00;100554.69;5117842;28;8812;-60
2023/01/27 03:18:52;;;;;;;;;7.40;6.00;;;;;2.88;86.36;100552.97;5118175;28;8823;-60
2023/01/27 03:21:20;;;;;;;;;6.20;6.20;;;;;2.89;86.38;100554.69;5117849;28;8843;-59
2023/01/27 03:23:48;;;;;;;;;6.60;6.40;;;;;2.88;86.15;100546.88;5132269;27;8849;-59
2023/01/27 03:26:16;;;;;;;;;7.00;5.60;;;;;2.89;86.47;100545.97;5135970;27;8809;-60
2023/01/27 03:29:53;;;;;;;;;4.40;4.40;;;;;2.90;86.21;100548.53;5117706;28;8812;-59
2023/01/27 03:31:38;;;;;;;;;9.80;8.40;;;;;2.91;86.54;100560.78;5117603;28;8958;-57
2023/01/27 03:34:06;;;;;;;;;6.00;4.00;;;;;2.93;86.58;100560.69;5117966;28;8827;-58
2023/01/27 03:47:35;;;;;;;;;5.20;3.20;;;;;2.91;86.81;100563.41;5117591;28;9056;-58
2023/01/27 03:50:09;;;;;;;;;4.80;4.20;;;;;2.92;86.56;100561.59;5117649;28;8840;-58
2023/01/27 03:52:37;;;;;;;;;5.00;5.00;;;;;2.93;86.94;100561.56;5121599;27;8813;-58
2023/01/27 03:55:08;;;;;;;;;4.40;3.60;;;;;2.93;86.80;100558.94;5137526;27;8817;-59
2023/01/27 03:57:35;;;;;;;;;2.20;1.00;;;;;2.94;86.86;100565.91;5124916;27;8839;-59
2023/01/27 04:00:03;;;;;;;;;3.80;1.40;;;;;2.95;86.95;100558.88;5117252;28;8847;-57
2023/01/27 04:08:01;;;;;;;;;4.40;4.40;;;;;2.96;86.35;100569.31;5116951;28;8823;-59
2023/01/27 04:10:29;;;;;;;;;3.00;3.00;;;;;2.97;86.66;100568.44;5116516;28;8832;-58
2023/01/27 04:12:56;;;;;;;;;5.00;3.80;;;;;2.99;86.77;100563.97;5116528;28;8925;-58
2023/01/27 04:15:23;;;;;;;;;4.40;4.00;;;;;3.01;86.63;100566.50;5116630;28;8820;-60
2023/01/27 04:17:51;;;;;;;;;5.20;4.00;;;;;3.01;86.55;100559.50;5116207;28;8820;-60
2023/01/27 04:20:19;;;;;;;;;4.60;3.60;;;;;3.02;86.25;100563.81;5116528;28;8839;-59
2023/01/27 04:22:46;;;;;;;;;6.40;4.40;;;;;3.02;86.85;100569.09;5122173;27;9333;-60
2023/01/27 04:25:14;;;;;;;;;6.00;5.20;;;;;3.03;86.60;100565.53;5137309;27;8825;-60
2023/01/27 04:27:42;;;;;;;;;2.60;2.60;;;;;3.05;86.50;100574.25;5124298;27;8934;-60
2023/01/27 04:30:10;;;;;;;;;3.60;2.20;;;;;3.06;86.86;100570.69;5115868;28;8931;-60
2023/01/27 04:32:38;;;;;;;;;4.00;3.20;;;;;3.08;86.84;100578.50;5116034;28;9501;-60
2023/01/27 04:35:05;;;;;;;;;6.60;5.60;;;;;3.10;86.34;100581.97;5116351;28;8831;-59
2023/01/27 04:37:33;;;;;;;;;9.60;5.60;;;;;3.10;86.83;100582.78;5115814;28;8830;-60
2023/01/27 04:40:01;;;;;;;;;5.20;4.80;;;;;3.10;86.85;100582.78;5116579;28;8824;-60
2023/01/27 04:42:29;;;;;;;;;4.00;3.00;;;;;3.10;86.13;100577.53;5116293;28;8831;-60
2023/01/27 04:44:57;;;;;;;;;4.80;3.40;;;;;3.11;86.72;100584.50;5116182;28;8827;-60
2023/01/27 04:47:25;;;;;;;;;6.00;3.40;;;;;3.12;86.36;100585.38;5115576;28;8819;-60
2023/01/27 04:49:52;;;;;;;;;3.80;3.80;;;;;3.12;86.77;100586.25;5116522;28;9502;-59
2023/01/27 04:52:20;;;;;;;;;3.00;3.00;;;;;3.12;86.52;100583.63;5118008;27;8836;-58
2023/01/27 04:54:48;;;;;;;;;3.80;3.40;;;;;3.13;86.82;100582.69;5136233;27;8833;-58
2023/01/27 04:57:15;;;;;;;;;7.00;6.00;;;;;3.12;86.89;100588.88;5127282;27;8832;-58
2023/01/27 04:59:43;;;;;;;;;4.40;4.40;;;;;3.13;86.39;100589.72;5115957;28;8855;-58
2023/01/27 05:02:11;;;;;;;;;6.80;6.00;;;;;3.13;87.03;100587.97;5115957;28;8832;-58
2023/01/27 05:04:39;;;;;;;;;7.00;6.80;;;;;3.14;86.81;100594.94;5115929;28;8840;-58
2023/01/27 05:07:07;;;;;;;;;6.40;5.20;;;;;3.15;86.68;100601.91;5095583;28;8834;-62
2023/01/27 05:09:34;;;;;;;;;3.60;3.60;;;;;3.17;86.38;100604.47;5095282;28;8834;-62
2023/01/27 05:12:02;;;;;;;;;5.20;5.20;;;;;3.18;86.67;100604.41;5095544;28;8837;-62
2023/01/27 05:14:30;;;;;;;;;6.00;5.20;;;;;3.19;86.66;100606.09;5095862;28;8895;-62
2023/01/27 05:16:58;;;;;;;;;4.00;4.00;;;;;3.19;86.37;100600.84;5114057;28;8877;-61
2023/01/27 05:19:25;;;;;;;;;7.20;5.80;;;;;3.19;86.50;100600.84;5116260;28;8827;-59
2023/01/27 05:21:53;;;;;;;;;6.00;6.00;;;;;3.19;86.86;100597.38;5115671;28;8993;-59
2023/01/27 05:24:21;;;;;;;;;3.00;3.00;;;;;3.20;86.89;100605.22;5135063;27;8828;-59
2023/01/27 05:26:49;;;;;;;;;5.20;5.20;;;;;3.22;86.76;100613.03;5118579;28;8934;-59
2023/01/27 05:29:17;;;;;;;;;6.00;3.80;;;;;3.23;86.70;100609.47;5115716;28;8820;-58
2023/01/27 05:31:45;;;;;;;;;6.40;4.40;;;;;3.24;86.82;100608.59;5115664;28;8844;-59
2023/01/27 05:34:13;;;;;;;;;6.00;5.60;;;;;3.25;86.57;100611.13;5114947;28;8962;-57
2023/01/27 05:36:40;;;;;;;;;4.00;4.00;;;;;3.26;86.69;100615.47;5115093;28;8812;-57
2023/01/27 05:39:08;;;;;;;;;3.60;3.60;;;;;3.26;86.76;100617.28;5115595;28;8827;-58
2023/01/27 05:41:36;;;;;;;;;3.20;3.20;;;;;3.27;86.14;100616.34;5115449;28;8820;-58
2023/01/27 05:44:03;;;;;;;;;4.00;3.80;;;;;3.29;86.93;100622.41;5115725;28;8811;-57
2023/01/27 05:46:33;;;;;;;;;5.20;4.40;;;;;3.30;86.66;100622.34;5115155;28;8816;-59
2023/01/27 05:49:00;;;;;;;;;4.40;4.40;;;;;3.31;86.78;100618.78;5115571;28;8808;-57
2023/01/27 05:51:28;;;;;;;;;7.40;4.80;;;;;3.32;86.61;100619.66;5114642;28;8847;-57
2023/01/27 05:53:56;;;;;;;;;3.40;3.40;;;;;3.33;86.18;100616.94;5129905;27;8834;-57
2023/01/27 05:56:25;;;;;;;;;3.60;3.60;;;;;3.34;86.32;100626.56;5121716;28;8844;-57
2023/01/27 05:58:53;;;;;;;;;6.60;5.60;;;;;3.36;86.12;100629.13;5114825;28;8820;-60
2023/01/27 06:01:21;;;;;;;;;4.60;4.60;;;;;3.35;86.00;100615.13;5114566;28;8839;-59
2023/01/27 06:03:48;;;;;;;;;8.80;5.80;;;;;3.36;86.35;100624.75;5114496;28;8835;-58
2023/01/27 06:06:16;;;;;;;;;5.60;4.40;;;;;3.37;87.00;100623.81;5114921;28;8846;-59
2023/01/27 06:08:45;;;;;;;;;6.60;5.60;;;;;3.38;85.97;100627.28;5116518;28;8815;-59
2023/01/27 06:11:12;;;;;;;;;7.80;5.60;;;;;3.39;86.77;100627.25;5119202;28;8862;-60
2023/01/27 06:13:40;;;;;;;;;6.40;6.40;;;;;3.40;86.21;100634.22;5118794;28;8819;-57
2023/01/27 06:16:08;;;;;;;;;2.20;2.20;;;;;3.39;86.85;100632.50;5118951;28;8962;-59
2023/01/27 06:18:36;;;;;;;;;4.40;4.40;;;;;3.39;86.69;100627.25;5118066;28;8811;-60
2023/01/27 06:21:04;;;;;;;;;8.60;8.60;;;;;3.41;86.95;100629.81;5117598;28;8891;-60
2023/01/27 06:23:31;;;;;;;;;3.00;1.80;;;;;3.42;86.39;100626.25;5117747;27;8936;-58
2023/01/27 06:25:59;;;;;;;;;6.00;6.00;;;;;3.42;86.51;100629.75;5118744;28;8857;-57
2023/01/27 06:28:27;;;;;;;;;4.40;3.60;;;;;3.43;86.51;100634.13;5117779;28;8816;-59
2023/01/27 06:30:56;;;;;;;;;4.80;4.40;;;;;3.43;86.11;100634.13;5118002;28;8882;-57
2023/01/27 06:33:24;;;;;;;;;1.80;1.80;;;;;3.44;86.34;100643.72;5117610;28;8804;-60
2023/01/27 06:35:52;;;;;;;;;6.60;6.60;;;;;3.44;86.46;100638.44;5118188;28;8901;-59
2023/01/27 06:38:20;;;;;;;;;8.60;7.00;;;;;3.45;86.62;100645.44;5117434;28;8855;-60
2023/01/27 06:40:47;;;;;;;;;4.00;3.60;;;;;3.46;86.18;100648.91;5117318;28;8849;-60
2023/01/27 06:43:15;;;;;;;;;4.00;3.40;;;;;3.45;86.51;100649.81;5116207;28;9558;-59
2023/01/27 06:45:43;;;;;;;;;4.40;3.40;;;;;3.45;86.49;100648.06;5116821;28;8824;-61
2023/01/27 06:48:11;;;;;;;;;4.00;4.00;;;;;3.46;86.68;100651.53;5117504;28;8812;-58
2023/01/27 06:50:38;;;;;;;;;3.80;2.80;;;;;3.45;86.30;100653.31;5116516;28;8856;-60
2023/01/27 06:53:06;;;;;;;;;8.20;5.60;;;;;3.45;86.20;100655.09;5123078;27;8820;-61
2023/01/27 06:55:34;;;;;;;;;5.60;5.20;;;;;3.46;86.40;100659.44;5119518;27;8846;-58
2023/01/27 06:58:02;;;;;;;;;3.00;3.00;;;;;3.45;85.99;100662.97;5115459;28;8844;-60
2023/01/27 07:00:29;;;;;;;;;4.00;4.00;;;;;3.45;86.64;100660.34;5115696;28;8979;-61
2023/01/27 07:02:57;;;;;;;;;4.80;4.00;;;;;3.45;86.86;100660.34;5112953;28;8911;-61
2023/01/27 07:05:25;;;;;;;;;3.80;3.60;;;;;3.44;86.55;100662.16;5112697;28;8874;-60
2023/01/27 07:07:53;;;;;;;;;2.40;2.40;;;;;3.45;86.16;100678.78;5113741;28;8911;-61
2023/01/27 07:10:21;;;;;;;;;1.80;1.80;;;;;3.44;86.28;100662.16;5112431;28;8865;-59
2023/01/27 07:12:49;;;;;;;;;3.00;3.00;;;;;3.44;86.52;100677.94;5112721;28;8832;-61
2023/01/27 07:15:17;;;;;;;;;7.00;7.00;;;;;3.47;86.42;100674.34;5112707;28;8849;-61
2023/01/27 07:17:45;;;;;;;;;7.40;6.00;;;;;3.48;86.30;100671.63;5113189;28;8823;-61
2023/01/27 07:20:13;;;;;;;;;3.00;2.20;;;;;3.49;86.61;100673.31;5113908;28;8861;-61
2023/01/27 07:22:41;;;;;;;;;6.00;4.60;;;;;3.50;86.67;100687.34;5119577;27;8818;-61
2023/01/27 07:25:09;;;;;;;;;3.00;3.00;;;;;3.51;86.03;100679.41;5135376;27;8841;-61
2023/01/27 07:27:37;;;;;;;;;4.00;4.00;;;;;3.51;86.56;100684.69;5135006;27;8829;-60
2023/01/27 07:30:06;;;;;;;;;8.20;6.20;;;;;3.51;86.39;100684.69;5133824;27;8883;-61
2023/01/27 07:32:34;;;;;;;;;5.20;3.80;;;;;3.52;86.27;100680.25;5134019;27;9523;-61
2023/01/27 07:35:02;;;;;;;;;5.60;4.40;;;;;3.52;86.39;100681.13;5133873;27;8829;-61
2023/01/27 07:37:33;;;;;;;;;5.60;5.60;;;;;3.54;86.20;100689.81;5133485;27;8926;-61
2023/01/27 07:40:04;;;;;;;;;6.60;5.60;;;;;3.55;86.79;100688.06;5134831;27;9487;-59
2023/01/27 07:42:32;;;;;;;;;6.00;4.40;;;;;3.56;86.54;100692.41;5135051;27;8967;-58
2023/01/27 07:45:00;;;;;;;;;1.40;1.00;;;;;3.56;86.26;100687.97;5136003;27;8828;-59
2023/01/27 07:47:28;;;;;;;;;3.00;3.00;;;;;3.57;86.76;100691.47;5136236;27;9529;-59
2023/01/27 07:49:56;;;;;;;;;3.00;3.00;;;;;3.58;86.79;100701.94;5136682;27;8850;-61
2023/01/27 07:52:23;;;;;;;;;5.60;3.80;;;;;3.59;86.31;100702.78;5135708;27;8872;-61
2023/01/27 07:54:51;;;;;;;;;3.40;3.40;;;;;3.60;86.24;100693.97;5135331;27;8951;-61
2023/01/27 07:57:19;;;;;;;;;7.00;6.00;;;;;3.63;86.79;100699.97;5135780;27;8921;-60
2023/01/27 07:59:47;;;;;;;;;1.40;0.60;;;;;3.65;86.50;100697.28;5135162;27;8946;-60
2023/01/27 08:02:15;;;;;;;;;3.40;2.20;;;;;3.68;85.96;100692.75;5134641;27;8918;-59
2023/01/27 08:04:43;;;;;;;;;4.00;3.60;;;;;3.70;86.28;100695.34;5135250;27;8880;-61
2023/01/27 08:07:19;;;;;;;;;1.40;1.40;;;;;3.71;86.04;100703.16;5134785;27;8966;-59
2023/01/27 08:09:48;;;;;;;;;4.00;3.00;;;;;3.72;86.42;100702.25;5135137;27;8825;-59
2023/01/27 08:12:16;;;;;;;;;2.40;2.20;;;;;3.74;85.90;100697.78;5134729;27;8845;-60
2023/01/27 08:14:43;;;;;;;;;1.00;1.00;;;;;3.75;86.37;100710.88;5134762;27;8837;-60
2023/01/27 08:17:11;;;;;;;;;2.20;1.00;;;;;3.78;86.30;100702.00;5133499;27;8840;-61
2023/01/27 08:19:39;;;;;;;;;2.60;2.60;;;;;3.80;86.54;100708.09;5133691;27;8833;-61
2023/01/27 08:22:07;;;;;;;;;2.20;1.00;;;;;3.81;86.15;100705.38;5133192;27;8856;-61
2023/01/27 08:24:35;;;;;;;;;3.00;0.80;;;;;3.83;86.26;100703.56;5132145;27;8830;-60
2023/01/27 08:27:03;;;;;;;;;4.00;4.00;;;;;3.85;86.41;100706.09;5133344;27;8915;-60
2023/01/27 08:29:34;;;;;;;;;3.60;3.60;;;;;3.86;85.78;100698.16;5133126;27;8825;-60
2023/01/27 08:32:02;;;;;;;;;1.40;1.00;;;;;3.88;85.89;100700.72;5133107;27;9583;-61
2023/01/27 08:34:30;;;;;;;;;4.00;1.40;;;;;3.89;86.38;100703.28;5132675;27;9502;-58
2023/01/27 08:36:59;;;;;;;;;0.00;0.00;;;;;3.90;86.06;100710.25;5131863;27;9511;-60
2023/01/27 08:39:27;;;;;;;;;4.40;3.80;;;;;3.91;86.50;100705.88;5132170;27;8849;-59
2023/01/27 08:41:55;;;;;;;;;3.20;3.00;;;;;3.92;85.76;100708.44;5131687;27;8880;-59
2023/01/27 08:44:23;;;;;;;;;3.40;2.20;;;;;3.94;85.72;100703.97;5131840;27;8841;-60
2023/01/27 08:46:51;;;;;;;;;3.80;2.60;;;;;3.95;85.81;100710.09;5131650;27;8898;-59
2023/01/27 08:49:19;;;;;;;;;2.20;1.00;;;;;3.96;86.26;100698.63;5131606;27;8830;-60
2023/01/27 08:51:47;;;;;;;;;3.00;1.40;;;;;3.98;86.54;100713.44;5132856;27;8861;-61
2023/01/27 08:54:14;;;;;;;;;0.80;0.00;;;;;4.00;85.91;100706.34;5133038;27;8840;-60
2023/01/27 08:56:42;;;;;;;;;4.80;3.80;;;;;4.02;86.32;100714.19;5133323;27;8817;-60
2023/01/27 08:59:10;;;;;;;;;1.80;1.80;;;;;4.05;86.47;100722.81;5134267;27;8830;-61
2023/01/27 09:01:40;;;;;;;;;3.60;3.60;;;;;4.09;86.05;100720.91;5132762;27;9622;-61
2023/01/27 09:04:08;;;;;;;;;1.40;1.40;;;;;4.10;86.13;100728.75;5133554;27;8922;-60
2023/01/27 09:06:36;;;;;;;;;4.40;4.40;;;;;4.12;86.40;100728.72;5133449;27;8884;-61
2023/01/27 09:09:10;;;;;;;;;3.20;3.00;;;;;4.13;86.03;100735.69;5134281;27;8818;-60
2023/01/27 09:11:39;;;;;;;;;3.20;3.20;;;;;4.13;85.92;100733.91;5134887;27;8849;-61
2023/01/27 09:14:07;;;;;;;;;0.00;0.00;;;;;4.15;85.96;100739.13;5134661;27;8838;-61
2023/01/27 09:16:34;;;;;;;;;1.40;1.40;;;;;4.17;86.10;100734.63;5134306;27;8851;-61
2023/01/27 09:19:02;;;;;;;;;3.00;3.00;;;;;4.18;85.92;100734.56;5134346;27;8941;-61
2023/01/27 09:21:30;;;;;;;;;0.80;0.00;;;;;4.20;86.18;100750.34;5132845;27;8942;-61
2023/01/27 09:23:59;;;;;;;;;1.00;0.80;;;;;4.19;86.00;100752.09;5133689;27;8818;-59
2023/01/27 09:26:28;;;;;;;;;4.00;4.00;;;;;4.21;85.89;100747.66;5132769;27;8825;-61
2023/01/27 09:28:56;;;;;;;;;1.80;1.80;;;;;4.22;86.05;100754.63;5130733;27;8910;-60
2023/01/27 09:31:24;;;;;;;;;3.20;3.20;;;;;4.24;86.16;100757.19;5130577;27;9518;-60
2023/01/27 09:33:52;;;;;;;;;1.80;1.80;;;;;4.24;86.61;100762.44;5129088;27;8838;-60
2023/01/27 09:36:20;;;;;;;;;4.00;4.00;;;;;4.26;86.59;100761.47;5129882;27;8829;-58
2023/01/27 09:38:48;;;;;;;;;0.80;0.80;;;;;4.26;86.02;100766.75;5130360;27;8857;-60
2023/01/27 09:41:16;;;;;;;;;1.40;1.00;;;;;4.27;85.74;100768.47;5129661;27;8846;-61
2023/01/27 09:43:44;;;;;;;;;0.00;0.00;;;;;4.28;86.14;100769.31;5130269;27;8825;-59
2023/01/27 09:46:12;;;;;;;;;3.60;3.00;;;;;4.29;86.28;100771.03;5133692;27;8834;-61
2023/01/27 09:48:41;;;;;;;;;3.00;3.00;;;;;4.29;86.21;100769.28;5134291;27;8833;-61
2023/01/27 09:51:09;;;;;;;;;2.60;1.00;;;;;4.30;85.95;100778.91;5134474;27;9653;-61
2023/01/27 09:53:37;;;;;;;;;3.00;1.00;;;;;4.32;85.85;100776.16;5133903;27;8904;-61
2023/01/27 09:56:05;;;;;;;;;2.60;2.20;;;;;4.32;86.28;100776.16;5134897;27;8825;-59
2023/01/27 09:58:33;;;;;;;;;1.00;1.00;;;;;4.33;86.02;100770.84;5136344;27;8830;-58
2023/01/27 10:01:01;;;;;;;;;1.00;1.00;;;;;4.35;86.48;100776.06;5136107;27;8957;-61
2023/01/27 10:03:29;;;;;;;;;2.60;1.00;;;;;4.34;86.42;100784.91;5135950;27;9254;-61
2023/01/27 10:05:57;;;;;;;;;3.00;1.00;;;;;4.36;86.49;100777.78;5135087;27;8841;-60
2023/01/27 10:08:25;;;;;;;;;3.00;1.00;;;;;4.36;86.24;100778.66;5133812;27;8975;-61
2023/01/27 10:10:53;;;;;;;;;2.20;2.20;;;;;4.38;86.07;100781.19;5133669;27;9171;-61
2023/01/27 10:13:22;;;;;;;;;2.20;1.40;;;;;4.38;85.66;100786.47;5132858;27;8834;-59
2023/01/27 10:15:50;;;;;;;;;1.00;0.80;;;;;4.40;86.29;100784.66;5133580;27;8853;-60
2023/01/27 10:18:18;;;;;;;;;2.60;2.60;;;;;4.41;86.25;100783.72;5134533;27;8852;-60
2023/01/27 10:20:46;;;;;;;;;2.20;2.20;;;;;4.42;86.00;100785.44;5134552;27;8867;-60
2023/01/27 10:23:14;;;;;;;;;1.00;1.00;;;;;4.44;86.39;100778.31;5134801;27;8887;-59
2023/01/27 10:25:42;;;;;;;;;1.40;1.40;;;;;4.46;85.98;100784.38;5134764;27;8853;-59
2023/01/27 10:28:10;;;;;;;;;2.20;1.00;;;;;4.48;86.34;100783.41;5134569;27;8865;-61
2023/01/27 10:30:38;;;;;;;;;1.80;1.00;;;;;4.50;86.40;100785.97;5133952;27;8843;-58
2023/01/27 10:33:06;;;;;;;;;1.00;1.00;;;;;4.51;86.46;100778.00;5134847;27;8834;-60
2023/01/27 10:35:34;;;;;;;;;1.00;0.80;;;;;4.52;86.24;100785.00;5135144;27;8833;-60
2023/01/27 10:38:02;;;;;;;;;3.40;3.40;;;;;4.53;85.90;100791.13;5133164;27;9199;-58
2023/01/27 10:40:30;;;;;;;;;3.20;3.20;;;;;4.54;86.25;100790.19;5135030;27;8937;-59
2023/01/27 10:43:00;;;;;;;;;3.00;3.00;;;;;4.54;86.42;100787.53;5134193;27;8837;-58
2023/01/27 10:45:28;;;;;;;;;2.80;2.60;;;;;4.56;86.56;100785.72;5133652;27;8845;-61
2023/01/27 10:47:57;;;;;;;;;3.80;3.80;;;;;4.57;86.42;100783.00;5134652;27;8825;-60
2023/01/27 10:50:25;;;;;;;;;3.00;3.00;;;;;4.59;86.04;100782.94;5134935;27;9614;-60
2023/01/27 10:52:53;;;;;;;;;3.80;2.60;;;;;4.59;85.82;100775.03;5133121;27;8948;-59
2023/01/27 10:55:21;;;;;;;;;3.40;2.60;;;;;4.60;86.40;100776.75;5131423;27;8830;-60
2023/01/27 10:57:50;;;;;;;;;3.40;3.20;;;;;4.60;86.09;100782.03;5131950;27;8905;-60
2023/01/27 11:00:17;;;;;;;;;3.60;3.00;;;;;4.61;85.86;100776.69;5134657;27;9511;-60
2023/01/27 11:03:06;;;;;;;;;3.40;3.40;;;;;4.61;86.26;100765.28;5135135;27;8980;-61
2023/01/27 11:05:34;;;;;;;;;3.00;3.00;;;;;4.62;86.14;100777.53;5133886;27;8842;-59
2023/01/27 11:08:02;;;;;;;;;0.80;0.80;;;;;4.63;86.28;100771.38;5134305;27;8847;-60
2023/01/27 11:10:30;;;;;;;;;3.00;3.00;;;;;4.65;86.86;100770.34;5134356;27;8837;-61
2023/01/27 11:12:58;;;;;;;;;3.00;1.00;;;;;4.68;86.13;100767.59;5134610;27;8906;-61
2023/01/27 11:15:27;;;;;;;;;3.00;1.00;;;;;4.70;86.35;100760.47;5134719;27;8837;-60
2023/01/27 11:17:55;;;;;;;;;3.40;3.00;;;;;4.74;86.49;100764.72;5134037;27;8853;-62
2023/01/27 11:20:23;;;;;;;;;2.60;2.60;;;;;4.78;86.15;100760.16;5134519;27;8887;-61
2023/01/27 11:22:51;;;;;;;;;0.00;0.00;;;;;4.82;86.46;100756.44;5132974;27;8818;-61
2023/01/27 11:25:20;;;;;;;;;4.80;3.00;;;;;4.86;86.26;100755.41;5133854;27;8852;-61
2023/01/27 11:27:48;;;;;;;;;3.00;3.00;;;;;4.88;86.18;100756.19;5133116;27;8837;-61
2023/01/27 11:30:16;;;;;;;;;1.00;1.00;;;;;4.92;86.33;100755.13;5131542;27;9195;-60
2023/01/27 11:32:45;;;;;;;;;2.20;1.00;;;;;4.95;86.28;100755.84;5132366;27;8845;-61
2023/01/27 11:35:13;;;;;;;;;1.40;1.40;;;;;5.02;86.23;100752.00;5132920;27;8805;-59
2023/01/27 11:37:42;;;;;;;;;1.80;1.80;;;;;5.13;86.07;100752.41;5132753;27;8849;-60
2023/01/27 11:40:10;;;;;;;;;1.00;1.00;;;;;5.24;86.19;100754.56;5133267;27;8852;-62
2023/01/27 11:42:38;;;;;;;;;1.80;1.80;;;;;5.30;85.62;100749.00;5132954;27;8912;-61
2023/01/27 11:45:06;;;;;;;;;2.60;1.00;;;;;5.28;85.56;100753.50;5133354;27;8874;-61
2023/01/27 11:47:34;;;;;;;;;1.00;1.00;;;;;5.24;85.75;100754.56;5133337;27;8822;-60
2023/01/27 11:50:03;;;;;;;;;0.00;0.00;;;;;5.21;85.55;100757.31;5133433;27;8891;-59
2023/01/27 11:52:31;;;;;;;;;1.00;1.00;;;;;5.21;85.57;100768.75;5133423;27;8948;-58
2023/01/27 11:54:59;;;;;;;;;2.20;2.20;;;;;5.19;85.59;100761.81;5133871;27;8833;-60
2023/01/27 11:57:28;;;;;;;;;3.60;3.00;;;;;5.17;85.67;100755.78;5133515;27;8830;-58
2023/01/27 11:59:56;;;;;;;;;6.40;4.80;;;;;5.15;85.47;100757.59;5132714;27;8834;-59
2023/01/27 12:02:25;;;;;;;;;1.20;1.20;;;;;5.12;86.13;100755.09;5132591;27;8844;-58
2023/01/27 12:04:53;;;;;;;;;2.60;1.40;;;;;5.12;85.77;100760.38;5132850;27;8953;-61
2023/01/27 12:07:22;;;;;;;;;2.60;2.60;;;;;5.15;85.61;100747.03;5132480;27;8964;-61
2023/01/27 12:09:50;;;;;;;;;3.80;1.80;;;;;5.20;85.74;100748.56;5131956;27;8892;-60
2023/01/27 12:12:18;;;;;;;;;1.00;1.00;;;;;5.30;86.09;100747.22;5130358;27;8825;-61
2023/01/27 12:14:46;;;;;;;;;3.00;1.00;;;;;5.42;85.48;100741.38;5130499;27;8829;-61
2023/01/27 12:17:15;;;;;;;;;1.80;1.80;;;;;5.51;85.45;100740.09;5130121;27;8830;-61
2023/01/27 12:19:43;;;;;;;;;3.00;3.00;;;;;5.55;85.13;100736.41;5130143;27;8880;-58
2023/01/27 12:22:11;;;;;;;;;1.00;1.00;;;;;5.54;85.46;100745.25;5129968;27;9634;-59